sensor_id;sensor_type;location;lat;lon;timestamp;temperature;humidity
14236;DHT22;7202;50.718;7.072;2023-08-07T00:00:51;13.70;99.90
14236;DHT22;7202;50.718;7.072;2023-08-07T00:03:20;13.70;99.90
14236;DHT22;7202;50.718;7.072;2023-08-07T00:05:49;13.70;99.90
14236;DHT22;7202;50.718;7.072;2023-08-07T00:08:19;13.70;99.90
14236;DHT22;7202;50.718;7.072;2023-08-07T00:10:49;13.80;99.90
14236;DHT22;7202;50.718;7.072;2023-08-07T00:13:17;13.70;99.90
14236;DHT22;7202;50.718;7.072;2023-08-07T00:15:46;13.70;99.90
14236;DHT22;7202;50.718;7.072;2023-08-07T00:18:14;13.70;99.90
14236;DHT22;7202;50.718;7.072;2023-08-07T00:20:43;13.70;99.90
14236;DHT22;7202;50.718;7.072;2023-08-07T00:23:12;13.70;99.90
14236;DHT22;7202;50.718;7.072;2023-08-07T00:25:40;13.70;99.90
14236;DHT22;7202;50.718;7.072;2023-08-07T00:28:10;13.70;99.90
14236;DHT22;7202;50.718;7.072;2023-08-07T00:30:39;13.70;99.90
14236;DHT22;7202;50.718;7.072;2023-08-07T00:33:07;13.60;99.90
14236;DHT22;7202;50.718;7.072;2023-08-07T00:35:36;13.70;99.90
14236;DHT22;7202;50.718;7.072;2023-08-07T00:38:04;13.70;99.90
14236;DHT22;7202;50.718;7.072;2023-08-07T00:40:36;13.70;99.90
14236;DHT22;7202;50.718;7.072;2023-08-07T00:43:06;13.70;99.90
14236;DHT22;7202;50.718;7.072;2023-08-07T00:45:43;13.70;99.90
14236;DHT22;7202;50.718;7.072;2023-08-07T00:48:15;13.70;99.90
14236;DHT22;7202;50.718;7.072;2023-08-07T00:50:45;13.70;99.90
14236;DHT22;7202;50.718;7.072;2023-08-07T00:53:14;13.70;99.90
14236;DHT22;7202;50.718;7.072;2023-08-07T00:55:43;13.70;99.90
14236;DHT22;7202;50.718;7.072;2023-08-07T00:58:12;13.80;99.90
14236;DHT22;7202;50.718;7.072;2023-08-07T01:00:42;13.80;99.90
14236;DHT22;7202;50.718;7.072;2023-08-07T01:03:12;13.80;99.90
14236;DHT22;7202;50.718;7.072;2023-08-07T01:05:41;13.70;99.90
14236;DHT22;7202;50.718;7.072;2023-08-07T01:08:10;13.70;99.90
14236;DHT22;7202;50.718;7.072;2023-08-07T01:10:49;13.80;99.90
14236;DHT22;7202;50.718;7.072;2023-08-07T01:13:27;13.80;99.90
14236;DHT22;7202;50.718;7.072;2023-08-07T01:16:01;13.80;99.90
14236;DHT22;7202;50.718;7.072;2023-08-07T01:18:35;13.70;99.90
14236;DHT22;7202;50.718;7.072;2023-08-07T01:21:04;13.80;99.90
14236;DHT22;7202;50.718;7.072;2023-08-07T01:23:34;13.80;99.90
14236;DHT22;7202;50.718;7.072;2023-08-07T01:26:03;13.80;99.90
14236;DHT22;7202;50.718;7.072;2023-08-07T01:28:37;13.80;99.90
14236;DHT22;7202;50.718;7.072;2023-08-07T01:31:10;13.80;99.90
14236;DHT22;7202;50.718;7.072;2023-08-07T01:33:46;13.80;99.90
14236;DHT22;7202;50.718;7.072;2023-08-07T01:36:19;13.80;99.90
14236;DHT22;7202;50.718;7.072;2023-08-07T01:38:50;13.70;99.90
14236;DHT22;7202;50.718;7.072;2023-08-07T01:41:21;13.70;99.90
14236;DHT22;7202;50.718;7.072;2023-08-07T01:43:50;13.70;99.90
14236;DHT22;7202;50.718;7.072;2023-08-07T01:46:21;13.70;99.90
14236;DHT22;7202;50.718;7.072;2023-08-07T01:48:49;13.70;99.90
14236;DHT22;7202;50.718;7.072;2023-08-07T01:51:18;13.70;99.90
14236;DHT22;7202;50.718;7.072;2023-08-07T01:53:46;13.80;99.90
14236;DHT22;7202;50.718;7.072;2023-08-07T01:56:17;13.80;99.90
14236;DHT22;7202;50.718;7.072;2023-08-07T01:58:45;13.70;99.90
14236;DHT22;7202;50.718;7.072;2023-08-07T02:01:14;13.70;99.90
14236;DHT22;7202;50.718;7.072;2023-08-07T02:03:43;13.70;99.90
14236;DHT22;7202;50.718;7.072;2023-08-07T02:06:11;13.70;99.90
14236;DHT22;7202;50.718;7.072;2023-08-07T02:08:40;13.80;99.90
14236;DHT22;7202;50.718;7.072;2023-08-07T02:11:09;13.80;99.90
14236;DHT22;7202;50.718;7.072;2023-08-07T02:13:39;13.80;99.90
14236;DHT22;7202;50.718;7.072;2023-08-07T02:16:07;13.80;99.90
14236;DHT22;7202;50.718;7.072;2023-08-07T02:18:36;13.80;99.90
14236;DHT22;7202;50.718;7.072;2023-08-07T02:21:05;13.80;99.90
14236;DHT22;7202;50.718;7.072;2023-08-07T02:23:35;13.80;99.90
14236;DHT22;7202;50.718;7.072;2023-08-07T02:26:04;13.90;99.90
14236;DHT22;7202;50.718;7.072;2023-08-07T02:28:32;13.80;99.90
14236;DHT22;7202;50.718;7.072;2023-08-07T02:31:03;13.80;99.90
14236;DHT22;7202;50.718;7.072;2023-08-07T02:33:31;13.80;99.90
14236;DHT22;7202;50.718;7.072;2023-08-07T02:36:00;13.90;99.90
14236;DHT22;7202;50.718;7.072;2023-08-07T02:38:29;13.80;99.90
14236;DHT22;7202;50.718;7.072;2023-08-07T02:40:57;13.80;99.90
14236;DHT22;7202;50.718;7.072;2023-08-07T02:43:26;13.70;99.90
14236;DHT22;7202;50.718;7.072;2023-08-07T02:45:55;13.70;99.90
14236;DHT22;7202;50.718;7.072;2023-08-07T02:48:26;13.70;99.90
14236;DHT22;7202;50.718;7.072;2023-08-07T02:50:55;13.70;99.90
14236;DHT22;7202;50.718;7.072;2023-08-07T02:53:23;13.70;99.90
14236;DHT22;7202;50.718;7.072;2023-08-07T02:55:52;13.70;99.90
14236;DHT22;7202;50.718;7.072;2023-08-07T02:58:21;13.70;99.90
14236;DHT22;7202;50.718;7.072;2023-08-07T03:00:49;13.80;99.90
14236;DHT22;7202;50.718;7.072;2023-08-07T03:03:18;13.70;99.90
14236;DHT22;7202;50.718;7.072;2023-08-07T03:05:51;13.70;99.90
14236;DHT22;7202;50.718;7.072;2023-08-07T03:08:20;13.80;99.90
14236;DHT22;7202;50.718;7.072;2023-08-07T03:10:52;13.70;99.90
14236;DHT22;7202;50.718;7.072;2023-08-07T03:13:23;13.80;99.90
14236;DHT22;7202;50.718;7.072;2023-08-07T03:15:58;13.80;99.90
14236;DHT22;7202;50.718;7.072;2023-08-07T03:18:28;13.80;99.90
14236;DHT22;7202;50.718;7.072;2023-08-07T03:20:58;13.70;99.90
14236;DHT22;7202;50.718;7.072;2023-08-07T03:23:28;13.70;99.90
14236;DHT22;7202;50.718;7.072;2023-08-07T03:26:03;13.70;99.90
14236;DHT22;7202;50.718;7.072;2023-08-07T03:28:36;13.70;99.90
14236;DHT22;7202;50.718;7.072;2023-08-07T03:31:05;13.70;99.90
14236;DHT22;7202;50.718;7.072;2023-08-07T03:33:35;13.70;99.90
14236;DHT22;7202;50.718;7.072;2023-08-07T03:36:06;13.70;99.90
14236;DHT22;7202;50.718;7.072;2023-08-07T03:38:35;13.80;99.90
14236;DHT22;7202;50.718;7.072;2023-08-07T03:41:03;13.80;99.90
14236;DHT22;7202;50.718;7.072;2023-08-07T03:43:33;13.70;99.90
14236;DHT22;7202;50.718;7.072;2023-08-07T03:46:02;13.70;99.90
14236;DHT22;7202;50.718;7.072;2023-08-07T03:48:31;13.70;99.90
14236;DHT22;7202;50.718;7.072;2023-08-07T03:51:02;13.70;99.90
14236;DHT22;7202;50.718;7.072;2023-08-07T03:53:37;13.70;99.90
14236;DHT22;7202;50.718;7.072;2023-08-07T03:56:05;13.60;99.90
14236;DHT22;7202;50.718;7.072;2023-08-07T03:58:35;13.60;99.90
14236;DHT22;7202;50.718;7.072;2023-08-07T04:01:04;13.60;99.90
14236;DHT22;7202;50.718;7.072;2023-08-07T04:03:32;13.50;99.90
14236;DHT22;7202;50.718;7.072;2023-08-07T04:06:01;13.60;99.90
14236;DHT22;7202;50.718;7.072;2023-08-07T04:08:33;13.50;99.90
14236;DHT22;7202;50.718;7.072;2023-08-07T04:11:04;13.50;99.90
14236;DHT22;7202;50.718;7.072;2023-08-07T04:13:35;13.40;99.90
14236;DHT22;7202;50.718;7.072;2023-08-07T04:16:04;13.40;99.90
14236;DHT22;7202;50.718;7.072;2023-08-07T04:18:33;13.40;99.90
14236;DHT22;7202;50.718;7.072;2023-08-07T04:21:02;13.40;99.90
14236;DHT22;7202;50.718;7.072;2023-08-07T04:23:31;13.50;99.90
14236;DHT22;7202;50.718;7.072;2023-08-07T04:26:00;13.40;99.90
14236;DHT22;7202;50.718;7.072;2023-08-07T04:28:30;13.40;99.90
14236;DHT22;7202;50.718;7.072;2023-08-07T04:30:59;13.40;99.90
14236;DHT22;7202;50.718;7.072;2023-08-07T04:33:28;13.40;99.90
14236;DHT22;7202;50.718;7.072;2023-08-07T04:35:57;13.30;99.90
14236;DHT22;7202;50.718;7.072;2023-08-07T04:38:25;13.30;99.90
14236;DHT22;7202;50.718;7.072;2023-08-07T04:40:54;13.30;99.90
14236;DHT22;7202;50.718;7.072;2023-08-07T04:43:22;13.30;99.90
14236;DHT22;7202;50.718;7.072;2023-08-07T04:45:53;13.30;99.90
14236;DHT22;7202;50.718;7.072;2023-08-07T04:48:21;13.30;99.90
14236;DHT22;7202;50.718;7.072;2023-08-07T04:50:52;13.30;99.90
14236;DHT22;7202;50.718;7.072;2023-08-07T04:53:21;13.30;99.90
14236;DHT22;7202;50.718;7.072;2023-08-07T04:55:49;13.30;99.90
14236;DHT22;7202;50.718;7.072;2023-08-07T04:58:18;13.30;99.90
14236;DHT22;7202;50.718;7.072;2023-08-07T05:00:47;13.40;99.90
14236;DHT22;7202;50.718;7.072;2023-08-07T05:03:16;13.40;99.90
14236;DHT22;7202;50.718;7.072;2023-08-07T05:05:46;13.40;99.90
14236;DHT22;7202;50.718;7.072;2023-08-07T05:08:14;13.40;99.90
14236;DHT22;7202;50.718;7.072;2023-08-07T05:10:43;13.40;99.90
14236;DHT22;7202;50.718;7.072;2023-08-07T05:13:11;13.40;99.90
14236;DHT22;7202;50.718;7.072;2023-08-07T05:15:40;13.50;99.90
14236;DHT22;7202;50.718;7.072;2023-08-07T05:18:09;13.50;99.90
14236;DHT22;7202;50.718;7.072;2023-08-07T05:20:39;13.50;99.90
14236;DHT22;7202;50.718;7.072;2023-08-07T05:23:08;13.50;99.90
14236;DHT22;7202;50.718;7.072;2023-08-07T05:25:38;13.50;99.90
14236;DHT22;7202;50.718;7.072;2023-08-07T05:28:06;13.60;99.90
14236;DHT22;7202;50.718;7.072;2023-08-07T05:30:35;13.60;99.90
14236;DHT22;7202;50.718;7.072;2023-08-07T05:33:04;13.60;99.90
14236;DHT22;7202;50.718;7.072;2023-08-07T05:35:32;13.60;99.90
14236;DHT22;7202;50.718;7.072;2023-08-07T05:38:02;13.60;99.90
14236;DHT22;7202;50.718;7.072;2023-08-07T05:40:31;13.70;99.90
14236;DHT22;7202;50.718;7.072;2023-08-07T05:43:03;13.60;99.90
14236;DHT22;7202;50.718;7.072;2023-08-07T05:45:31;13.70;99.90
14236;DHT22;7202;50.718;7.072;2023-08-07T05:48:00;13.70;99.90
14236;DHT22;7202;50.718;7.072;2023-08-07T05:50:29;13.70;99.90
14236;DHT22;7202;50.718;7.072;2023-08-07T05:52:57;13.70;99.90
14236;DHT22;7202;50.718;7.072;2023-08-07T05:55:27;13.80;99.90
14236;DHT22;7202;50.718;7.072;2023-08-07T05:57:56;13.80;99.90
14236;DHT22;7202;50.718;7.072;2023-08-07T06:00:24;13.80;99.90
14236;DHT22;7202;50.718;7.072;2023-08-07T06:02:53;13.80;99.90
14236;DHT22;7202;50.718;7.072;2023-08-07T06:05:22;13.80;99.90
14236;DHT22;7202;50.718;7.072;2023-08-07T06:07:50;13.90;99.90
14236;DHT22;7202;50.718;7.072;2023-08-07T06:10:19;13.90;99.90
14236;DHT22;7202;50.718;7.072;2023-08-07T06:12:49;13.90;99.90
14236;DHT22;7202;50.718;7.072;2023-08-07T06:15:17;13.90;99.90
14236;DHT22;7202;50.718;7.072;2023-08-07T06:17:46;13.90;99.90
14236;DHT22;7202;50.718;7.072;2023-08-07T06:20:15;13.90;99.90
14236;DHT22;7202;50.718;7.072;2023-08-07T06:22:44;13.90;99.90
14236;DHT22;7202;50.718;7.072;2023-08-07T06:25:12;14.00;99.90
14236;DHT22;7202;50.718;7.072;2023-08-07T06:27:41;13.90;99.90
14236;DHT22;7202;50.718;7.072;2023-08-07T06:30:12;13.90;99.90
14236;DHT22;7202;50.718;7.072;2023-08-07T06:32:41;13.90;99.90
14236;DHT22;7202;50.718;7.072;2023-08-07T06:35:10;13.90;99.90
14236;DHT22;7202;50.718;7.072;2023-08-07T06:37:38;13.90;99.90
14236;DHT22;7202;50.718;7.072;2023-08-07T06:40:08;13.90;99.90
14236;DHT22;7202;50.718;7.072;2023-08-07T06:42:37;13.90;99.90
14236;DHT22;7202;50.718;7.072;2023-08-07T06:45:06;13.90;99.90
14236;DHT22;7202;50.718;7.072;2023-08-07T06:47:36;13.90;99.90
14236;DHT22;7202;50.718;7.072;2023-08-07T06:50:05;13.90;99.90
14236;DHT22;7202;50.718;7.072;2023-08-07T06:52:34;13.90;99.90
14236;DHT22;7202;50.718;7.072;2023-08-07T06:55:04;13.80;99.90
14236;DHT22;7202;50.718;7.072;2023-08-07T06:57:32;13.80;99.90
14236;DHT22;7202;50.718;7.072;2023-08-07T07:00:01;13.80;99.90
14236;DHT22;7202;50.718;7.072;2023-08-07T07:02:29;13.70;99.90
14236;DHT22;7202;50.718;7.072;2023-08-07T07:05:00;13.70;99.90
14236;DHT22;7202;50.718;7.072;2023-08-07T07:07:29;13.60;99.90
14236;DHT22;7202;50.718;7.072;2023-08-07T07:09:58;13.60;99.90
14236;DHT22;7202;50.718;7.072;2023-08-07T07:12:28;13.50;99.90
14236;DHT22;7202;50.718;7.072;2023-08-07T07:14:57;13.50;99.90
14236;DHT22;7202;50.718;7.072;2023-08-07T07:17:25;13.40;99.90
14236;DHT22;7202;50.718;7.072;2023-08-07T07:19:54;13.40;99.90
14236;DHT22;7202;50.718;7.072;2023-08-07T07:22:25;13.30;99.90
14236;DHT22;7202;50.718;7.072;2023-08-07T07:24:56;13.30;99.90
14236;DHT22;7202;50.718;7.072;2023-08-07T07:27:25;13.30;99.90
14236;DHT22;7202;50.718;7.072;2023-08-07T07:29:54;13.30;99.90
14236;DHT22;7202;50.718;7.072;2023-08-07T07:32:23;13.30;99.90
14236;DHT22;7202;50.718;7.072;2023-08-07T07:34:53;13.30;99.90
14236;DHT22;7202;50.718;7.072;2023-08-07T07:37:22;13.30;99.90
14236;DHT22;7202;50.718;7.072;2023-08-07T07:39:53;13.30;99.90
14236;DHT22;7202;50.718;7.072;2023-08-07T07:42:22;13.30;99.90
14236;DHT22;7202;50.718;7.072;2023-08-07T07:44:51;13.30;99.90
14236;DHT22;7202;50.718;7.072;2023-08-07T07:47:20;13.30;99.90
14236;DHT22;7202;50.718;7.072;2023-08-07T07:50:04;13.30;99.90
14236;DHT22;7202;50.718;7.072;2023-08-07T07:52:34;13.30;99.90
14236;DHT22;7202;50.718;7.072;2023-08-07T07:55:05;13.30;99.90
14236;DHT22;7202;50.718;7.072;2023-08-07T07:57:36;13.40;99.90
14236;DHT22;7202;50.718;7.072;2023-08-07T08:00:05;13.40;99.90
14236;DHT22;7202;50.718;7.072;2023-08-07T08:02:40;13.40;99.90
14236;DHT22;7202;50.718;7.072;2023-08-07T08:05:10;13.50;99.90
14236;DHT22;7202;50.718;7.072;2023-08-07T08:07:39;13.50;99.90
14236;DHT22;7202;50.718;7.072;2023-08-07T08:10:10;13.60;99.90
14236;DHT22;7202;50.718;7.072;2023-08-07T08:12:39;13.60;99.90
14236;DHT22;7202;50.718;7.072;2023-08-07T08:15:08;13.60;99.90
14236;DHT22;7202;50.718;7.072;2023-08-07T08:17:37;13.60;99.90
14236;DHT22;7202;50.718;7.072;2023-08-07T08:20:07;13.70;99.90
14236;DHT22;7202;50.718;7.072;2023-08-07T08:22:36;13.70;99.90
14236;DHT22;7202;50.718;7.072;2023-08-07T08:25:05;13.80;99.90
14236;DHT22;7202;50.718;7.072;2023-08-07T08:27:36;13.80;99.90
14236;DHT22;7202;50.718;7.072;2023-08-07T08:30:07;13.80;99.90
14236;DHT22;7202;50.718;7.072;2023-08-07T08:32:36;13.90;99.90
14236;DHT22;7202;50.718;7.072;2023-08-07T08:35:05;13.90;99.90
14236;DHT22;7202;50.718;7.072;2023-08-07T08:37:34;13.90;99.90
14236;DHT22;7202;50.718;7.072;2023-08-07T08:40:03;14.00;99.90
14236;DHT22;7202;50.718;7.072;2023-08-07T08:42:35;14.00;99.90
14236;DHT22;7202;50.718;7.072;2023-08-07T08:45:09;14.00;99.90
14236;DHT22;7202;50.718;7.072;2023-08-07T08:47:39;14.10;99.90
14236;DHT22;7202;50.718;7.072;2023-08-07T08:50:09;14.10;99.90
14236;DHT22;7202;50.718;7.072;2023-08-07T08:52:42;14.10;99.90
14236;DHT22;7202;50.718;7.072;2023-08-07T08:55:12;14.20;99.90
14236;DHT22;7202;50.718;7.072;2023-08-07T08:57:42;14.20;99.90
14236;DHT22;7202;50.718;7.072;2023-08-07T09:00:12;14.30;99.90
14236;DHT22;7202;50.718;7.072;2023-08-07T09:02:49;14.40;99.90
14236;DHT22;7202;50.718;7.072;2023-08-07T09:05:19;14.50;99.90
14236;DHT22;7202;50.718;7.072;2023-08-07T09:07:49;14.50;99.90
14236;DHT22;7202;50.718;7.072;2023-08-07T09:10:18;14.60;99.90
14236;DHT22;7202;50.718;7.072;2023-08-07T09:12:53;14.60;99.90
14236;DHT22;7202;50.718;7.072;2023-08-07T09:15:23;14.60;99.90
14236;DHT22;7202;50.718;7.072;2023-08-07T09:17:54;14.60;99.90
14236;DHT22;7202;50.718;7.072;2023-08-07T09:20:23;14.60;99.90
14236;DHT22;7202;50.718;7.072;2023-08-07T09:22:52;14.70;99.90
14236;DHT22;7202;50.718;7.072;2023-08-07T09:25:29;14.70;99.90
14236;DHT22;7202;50.718;7.072;2023-08-07T09:28:01;14.80;99.90
14236;DHT22;7202;50.718;7.072;2023-08-07T09:30:32;14.90;99.90
14236;DHT22;7202;50.718;7.072;2023-08-07T09:33:03;15.00;99.90
14236;DHT22;7202;50.718;7.072;2023-08-07T09:35:31;15.10;99.90
14236;DHT22;7202;50.718;7.072;2023-08-07T09:38:01;15.20;99.90
14236;DHT22;7202;50.718;7.072;2023-08-07T09:40:31;15.30;99.90
14236;DHT22;7202;50.718;7.072;2023-08-07T09:43:01;15.50;99.90
14236;DHT22;7202;50.718;7.072;2023-08-07T09:45:30;15.40;99.90
14236;DHT22;7202;50.718;7.072;2023-08-07T09:48:03;15.50;99.90
14236;DHT22;7202;50.718;7.072;2023-08-07T09:50:33;15.50;99.90
14236;DHT22;7202;50.718;7.072;2023-08-07T09:53:02;15.50;99.90
14236;DHT22;7202;50.718;7.072;2023-08-07T09:55:30;15.50;99.90
14236;DHT22;7202;50.718;7.072;2023-08-07T09:58:01;15.50;99.90
14236;DHT22;7202;50.718;7.072;2023-08-07T10:00:33;15.40;99.90
14236;DHT22;7202;50.718;7.072;2023-08-07T10:03:03;15.40;99.90
14236;DHT22;7202;50.718;7.072;2023-08-07T10:05:33;15.40;99.90
14236;DHT22;7202;50.718;7.072;2023-08-07T10:08:02;15.40;99.90
14236;DHT22;7202;50.718;7.072;2023-08-07T10:10:32;15.40;99.90
14236;DHT22;7202;50.718;7.072;2023-08-07T10:13:03;15.40;99.90
14236;DHT22;7202;50.718;7.072;2023-08-07T10:15:32;15.30;99.90
14236;DHT22;7202;50.718;7.072;2023-08-07T10:18:02;15.30;99.90
14236;DHT22;7202;50.718;7.072;2023-08-07T10:20:31;15.30;99.90
14236;DHT22;7202;50.718;7.072;2023-08-07T10:23:04;15.30;99.90
14236;DHT22;7202;50.718;7.072;2023-08-07T10:25:35;15.40;99.90
14236;DHT22;7202;50.718;7.072;2023-08-07T10:28:09;15.40;99.90
14236;DHT22;7202;50.718;7.072;2023-08-07T10:30:41;15.40;99.90
14236;DHT22;7202;50.718;7.072;2023-08-07T10:33:12;15.50;99.90
14236;DHT22;7202;50.718;7.072;2023-08-07T10:35:45;15.60;99.90
14236;DHT22;7202;50.718;7.072;2023-08-07T10:38:14;15.60;99.90
14236;DHT22;7202;50.718;7.072;2023-08-07T10:40:59;15.70;99.90
14236;DHT22;7202;50.718;7.072;2023-08-07T10:43:29;15.80;99.90
14236;DHT22;7202;50.718;7.072;2023-08-07T10:46:05;15.90;99.90
14236;DHT22;7202;50.718;7.072;2023-08-07T10:48:44;16.10;99.90
14236;DHT22;7202;50.718;7.072;2023-08-07T10:51:17;16.10;99.90
14236;DHT22;7202;50.718;7.072;2023-08-07T10:53:48;16.20;99.90
14236;DHT22;7202;50.718;7.072;2023-08-07T10:56:30;16.30;99.90
14236;DHT22;7202;50.718;7.072;2023-08-07T10:59:08;16.30;99.90
14236;DHT22;7202;50.718;7.072;2023-08-07T11:01:41;16.30;99.90
14236;DHT22;7202;50.718;7.072;2023-08-07T11:04:11;16.40;99.90
14236;DHT22;7202;50.718;7.072;2023-08-07T11:06:42;16.40;99.90
14236;DHT22;7202;50.718;7.072;2023-08-07T11:09:11;16.50;99.90
14236;DHT22;7202;50.718;7.072;2023-08-07T11:11:41;16.60;99.90
14236;DHT22;7202;50.718;7.072;2023-08-07T11:14:12;16.70;99.90
14236;DHT22;7202;50.718;7.072;2023-08-07T11:16:42;16.80;99.90
14236;DHT22;7202;50.718;7.072;2023-08-07T11:19:12;16.90;99.90
14236;DHT22;7202;50.718;7.072;2023-08-07T11:21:42;17.00;99.90
14236;DHT22;7202;50.718;7.072;2023-08-07T11:24:12;16.90;99.90
14236;DHT22;7202;50.718;7.072;2023-08-07T11:26:42;17.00;99.90
14236;DHT22;7202;50.718;7.072;2023-08-07T11:29:17;17.00;99.90
14236;DHT22;7202;50.718;7.072;2023-08-07T11:31:48;16.90;99.90
14236;DHT22;7202;50.718;7.072;2023-08-07T11:34:18;17.00;99.90
14236;DHT22;7202;50.718;7.072;2023-08-07T11:36:47;17.10;99.90
14236;DHT22;7202;50.718;7.072;2023-08-07T11:39:15;17.30;99.90
14236;DHT22;7202;50.718;7.072;2023-08-07T11:41:47;17.50;99.90
14236;DHT22;7202;50.718;7.072;2023-08-07T11:44:17;17.70;99.90
14236;DHT22;7202;50.718;7.072;2023-08-07T11:46:46;17.90;99.90
14236;DHT22;7202;50.718;7.072;2023-08-07T11:49:14;18.00;99.90
14236;DHT22;7202;50.718;7.072;2023-08-07T11:51:43;18.20;99.90
14236;DHT22;7202;50.718;7.072;2023-08-07T11:54:14;18.30;99.90
14236;DHT22;7202;50.718;7.072;2023-08-07T11:56:45;18.50;99.90
14236;DHT22;7202;50.718;7.072;2023-08-07T11:59:17;18.60;99.90
14236;DHT22;7202;50.718;7.072;2023-08-07T12:01:46;18.70;99.90
14236;DHT22;7202;50.718;7.072;2023-08-07T12:04:17;18.80;99.90
14236;DHT22;7202;50.718;7.072;2023-08-07T12:06:53;18.80;99.90
14236;DHT22;7202;50.718;7.072;2023-08-07T12:09:25;18.90;99.90
14236;DHT22;7202;50.718;7.072;2023-08-07T12:11:56;19.00;99.90
14236;DHT22;7202;50.718;7.072;2023-08-07T12:14:29;19.00;99.90
14236;DHT22;7202;50.718;7.072;2023-08-07T12:17:01;19.10;99.90
14236;DHT22;7202;50.718;7.072;2023-08-07T12:19:39;19.20;99.90
14236;DHT22;7202;50.718;7.072;2023-08-07T12:22:10;18.90;99.90
14236;DHT22;7202;50.718;7.072;2023-08-07T12:24:41;18.90;99.90
14236;DHT22;7202;50.718;7.072;2023-08-07T12:27:10;18.90;99.90
14236;DHT22;7202;50.718;7.072;2023-08-07T12:29:40;19.00;99.90
14236;DHT22;7202;50.718;7.072;2023-08-07T12:32:08;19.10;99.90
14236;DHT22;7202;50.718;7.072;2023-08-07T12:34:38;19.10;99.90
14236;DHT22;7202;50.718;7.072;2023-08-07T12:37:28;19.10;99.90
14236;DHT22;7202;50.718;7.072;2023-08-07T12:39:56;19.20;99.90
14236;DHT22;7202;50.718;7.072;2023-08-07T12:42:45;19.20;99.90
14236;DHT22;7202;50.718;7.072;2023-08-07T12:45:15;19.40;99.90
14236;DHT22;7202;50.718;7.072;2023-08-07T12:47:44;19.40;99.90
14236;DHT22;7202;50.718;7.072;2023-08-07T12:50:12;19.30;99.90
14236;DHT22;7202;50.718;7.072;2023-08-07T12:52:41;19.30;99.90
14236;DHT22;7202;50.718;7.072;2023-08-07T12:55:10;19.40;99.90
14236;DHT22;7202;50.718;7.072;2023-08-07T12:57:42;19.40;99.90
14236;DHT22;7202;50.718;7.072;2023-08-07T13:00:12;19.50;99.90
14236;DHT22;7202;50.718;7.072;2023-08-07T13:02:45;19.60;99.90
14236;DHT22;7202;50.718;7.072;2023-08-07T13:05:14;19.60;99.90
14236;DHT22;7202;50.718;7.072;2023-08-07T13:07:44;19.50;99.90
14236;DHT22;7202;50.718;7.072;2023-08-07T13:10:15;19.40;99.90
14236;DHT22;7202;50.718;7.072;2023-08-07T13:12:47;19.20;99.90
14236;DHT22;7202;50.718;7.072;2023-08-07T13:15:16;19.10;99.90
14236;DHT22;7202;50.718;7.072;2023-08-07T13:17:46;19.00;99.90
14236;DHT22;7202;50.718;7.072;2023-08-07T13:20:15;19.00;99.90
14236;DHT22;7202;50.718;7.072;2023-08-07T13:22:44;19.00;99.90
14236;DHT22;7202;50.718;7.072;2023-08-07T13:25:13;19.00;99.90
14236;DHT22;7202;50.718;7.072;2023-08-07T13:27:42;19.10;99.90
14236;DHT22;7202;50.718;7.072;2023-08-07T13:30:11;19.30;99.90
14236;DHT22;7202;50.718;7.072;2023-08-07T13:32:40;19.40;99.90
14236;DHT22;7202;50.718;7.072;2023-08-07T13:35:10;19.50;99.90
14236;DHT22;7202;50.718;7.072;2023-08-07T13:37:39;19.60;99.90
14236;DHT22;7202;50.718;7.072;2023-08-07T13:40:08;19.60;99.90
14236;DHT22;7202;50.718;7.072;2023-08-07T13:42:38;19.60;99.90
14236;DHT22;7202;50.718;7.072;2023-08-07T13:45:08;19.50;99.90
14236;DHT22;7202;50.718;7.072;2023-08-07T13:47:37;19.40;99.90
14236;DHT22;7202;50.718;7.072;2023-08-07T13:50:07;19.40;99.90
14236;DHT22;7202;50.718;7.072;2023-08-07T13:52:42;19.40;99.90
14236;DHT22;7202;50.718;7.072;2023-08-07T13:55:11;19.60;99.90
14236;DHT22;7202;50.718;7.072;2023-08-07T13:57:39;19.60;99.90
14236;DHT22;7202;50.718;7.072;2023-08-07T14:00:09;19.80;99.90
14236;DHT22;7202;50.718;7.072;2023-08-07T14:02:39;19.90;99.90
14236;DHT22;7202;50.718;7.072;2023-08-07T14:05:08;20.00;99.90
14236;DHT22;7202;50.718;7.072;2023-08-07T14:07:39;20.20;99.90
14236;DHT22;7202;50.718;7.072;2023-08-07T14:10:09;20.30;99.90
14236;DHT22;7202;50.718;7.072;2023-08-07T14:12:37;20.30;99.90
14236;DHT22;7202;50.718;7.072;2023-08-07T14:15:06;20.20;99.90
14236;DHT22;7202;50.718;7.072;2023-08-07T14:17:35;20.00;99.90
14236;DHT22;7202;50.718;7.072;2023-08-07T14:20:05;19.80;99.90
14236;DHT22;7202;50.718;7.072;2023-08-07T14:22:33;19.60;99.90
14236;DHT22;7202;50.718;7.072;2023-08-07T14:25:04;19.50;99.90
14236;DHT22;7202;50.718;7.072;2023-08-07T14:27:34;19.40;99.90
14236;DHT22;7202;50.718;7.072;2023-08-07T14:30:04;19.40;99.90
14236;DHT22;7202;50.718;7.072;2023-08-07T14:32:32;19.50;99.90
14236;DHT22;7202;50.718;7.072;2023-08-07T14:35:01;19.70;99.90
14236;DHT22;7202;50.718;7.072;2023-08-07T14:42:12;19.90;99.90
14236;DHT22;7202;50.718;7.072;2023-08-07T14:44:42;20.00;99.90
14236;DHT22;7202;50.718;7.072;2023-08-07T14:47:10;20.20;99.90
14236;DHT22;7202;50.718;7.072;2023-08-07T14:49:39;20.30;99.90
14236;DHT22;7202;50.718;7.072;2023-08-07T14:52:08;20.40;99.90
14236;DHT22;7202;50.718;7.072;2023-08-07T14:54:36;20.50;99.90
14236;DHT22;7202;50.718;7.072;2023-08-07T14:57:05;20.50;99.90
14236;DHT22;7202;50.718;7.072;2023-08-07T14:59:34;20.50;99.90
14236;DHT22;7202;50.718;7.072;2023-08-07T15:02:05;20.50;99.90
14236;DHT22;7202;50.718;7.072;2023-08-07T15:04:34;20.50;99.90
14236;DHT22;7202;50.718;7.072;2023-08-07T15:07:03;20.40;99.90
14236;DHT22;7202;50.718;7.072;2023-08-07T15:09:31;20.40;99.90
14236;DHT22;7202;50.718;7.072;2023-08-07T15:12:00;20.30;99.90
14236;DHT22;7202;50.718;7.072;2023-08-07T15:14:29;20.30;99.90
14236;DHT22;7202;50.718;7.072;2023-08-07T15:16:57;20.20;99.90
14236;DHT22;7202;50.718;7.072;2023-08-07T15:19:28;20.10;99.90
14236;DHT22;7202;50.718;7.072;2023-08-07T15:21:56;19.90;99.90
14236;DHT22;7202;50.718;7.072;2023-08-07T15:24:25;19.80;99.90
14236;DHT22;7202;50.718;7.072;2023-08-07T15:26:54;19.80;99.90
14236;DHT22;7202;50.718;7.072;2023-08-07T15:29:22;19.70;99.90
14236;DHT22;7202;50.718;7.072;2023-08-07T15:31:51;19.60;99.90
14236;DHT22;7202;50.718;7.072;2023-08-07T15:34:20;19.50;99.90
14236;DHT22;7202;50.718;7.072;2023-08-07T15:36:50;19.40;99.90
14236;DHT22;7202;50.718;7.072;2023-08-07T15:39:18;19.40;99.90
14236;DHT22;7202;50.718;7.072;2023-08-07T15:41:47;19.40;99.90
14236;DHT22;7202;50.718;7.072;2023-08-07T15:44:15;19.50;99.90
14236;DHT22;7202;50.718;7.072;2023-08-07T15:46:44;19.60;99.90
14236;DHT22;7202;50.718;7.072;2023-08-07T15:49:12;19.70;99.90
14236;DHT22;7202;50.718;7.072;2023-08-07T15:51:41;19.70;99.90
14236;DHT22;7202;50.718;7.072;2023-08-07T15:54:11;19.80;99.90
14236;DHT22;7202;50.718;7.072;2023-08-07T15:56:40;19.90;99.90
14236;DHT22;7202;50.718;7.072;2023-08-07T15:59:08;20.00;99.90
14236;DHT22;7202;50.718;7.072;2023-08-07T16:01:37;20.00;99.90
14236;DHT22;7202;50.718;7.072;2023-08-07T16:04:06;20.00;99.90
14236;DHT22;7202;50.718;7.072;2023-08-07T16:06:34;20.00;99.90